createdAt,value
2022-08-20T00:04:25.119Z,10.60
2022-08-20T00:09:29.890Z,11.70
2022-08-20T00:14:35.863Z,11.80
2022-08-20T00:19:39.739Z,11.80
2022-08-20T00:24:44.117Z,10.00
2022-08-20T00:29:48.637Z,10.90
2022-08-20T00:34:52.336Z,11.30
2022-08-20T00:39:57.669Z,10.70
2022-08-20T00:45:01.750Z,11.00
2022-08-20T00:50:07.625Z,10.30
2022-08-20T00:55:12.304Z,11.00
2022-08-20T01:00:21.919Z,10.40
2022-08-20T01:05:29.405Z,11.80
2022-08-20T01:10:39.033Z,9.40
2022-08-20T01:15:46.269Z,10.70
2022-08-20T01:20:53.124Z,11.10
2022-08-20T01:26:06.730Z,11.80
2022-08-20T01:31:15.173Z,10.20
2022-08-20T01:36:53.486Z,11.90
2022-08-20T01:42:26.319Z,12.00
2022-08-20T01:47:38.292Z,12.80
2022-08-20T01:53:09.820Z,12.90
2022-08-20T01:58:14.293Z,14.50
2022-08-20T02:03:18.720Z,13.40
2022-08-20T02:08:23.922Z,13.30
2022-08-20T02:13:29.000Z,14.20
2022-08-20T02:18:33.500Z,21.00
2022-08-20T02:23:38.135Z,12.20
2022-08-20T02:28:43.069Z,11.20
2022-08-20T02:34:22.094Z,12.60
2022-08-20T02:39:14.859Z,12.90
2022-08-20T02:44:22.406Z,12.00
2022-08-20T02:49:27.139Z,12.90
2022-08-20T02:54:33.634Z,12.20
2022-08-20T02:59:37.299Z,12.40
2022-08-20T03:04:42.324Z,11.70
2022-08-20T03:09:46.622Z,12.50
2022-08-20T03:14:51.259Z,11.90
2022-08-20T03:19:56.522Z,11.00
2022-08-20T03:25:01.088Z,11.70
2022-08-20T03:30:09.095Z,12.30
2022-08-20T03:35:15.684Z,12.20
2022-08-20T03:40:35.836Z,11.30
2022-08-20T03:45:42.039Z,11.80
2022-08-20T03:50:48.606Z,10.60
2022-08-20T03:55:58.246Z,12.40
2022-08-20T04:01:08.987Z,13.50
2022-08-20T04:11:38.345Z,13.40
2022-08-20T04:16:43.838Z,13.20
2022-08-20T04:21:50.956Z,14.10
2022-08-20T04:26:56.412Z,13.50
2022-08-20T04:32:05.855Z,13.40
2022-08-20T04:37:17.369Z,13.60
2022-08-20T04:42:22.252Z,12.80
2022-08-20T04:47:34.705Z,13.00
2022-08-20T04:52:39.899Z,14.10
2022-08-20T04:57:46.309Z,13.20
2022-08-20T05:07:53.700Z,15.40
2022-08-20T05:12:58.143Z,13.50
2022-08-20T05:18:05.092Z,13.30
2022-08-20T05:23:11.534Z,15.20
2022-08-20T05:28:22.876Z,14.80
2022-08-20T05:33:31.507Z,13.60
2022-08-20T05:38:37.697Z,13.30
2022-08-20T05:48:46.661Z,14.00
2022-08-20T05:53:50.412Z,14.10
2022-08-20T05:58:54.647Z,13.50
2022-08-20T06:04:17.808Z,13.50
2022-08-20T06:09:30.785Z,13.90
2022-08-20T06:14:36.540Z,14.00
2022-08-20T06:19:44.141Z,11.20
2022-08-20T06:24:48.609Z,13.00
2022-08-20T06:29:54.222Z,10.70
2022-08-20T06:34:57.636Z,10.90
2022-08-20T06:40:06.483Z,12.00
2022-08-20T06:45:17.079Z,9.60
2022-08-20T06:50:33.664Z,10.60
2022-08-20T06:55:41.614Z,9.30
2022-08-20T07:00:53.402Z,10.00
2022-08-20T07:05:58.251Z,9.50
2022-08-20T07:11:03.204Z,10.10
2022-08-20T07:16:11.946Z,9.50
2022-08-20T07:21:18.092Z,9.40
2022-08-20T07:26:23.484Z,10.50
2022-08-20T07:31:57.142Z,9.20
2022-08-20T07:37:01.893Z,10.70
2022-08-20T07:42:08.452Z,9.60
2022-08-20T07:47:13.339Z,10.50
2022-08-20T07:52:18.788Z,11.70
2022-08-20T07:57:23.402Z,11.00
2022-08-20T08:02:28.659Z,11.90
2022-08-20T08:07:33.028Z,11.30
2022-08-20T08:12:46.015Z,12.40
2022-08-20T08:17:54.285Z,9.50
2022-08-20T08:22:59.239Z,9.70
2022-08-20T08:28:04.084Z,10.10
2022-08-20T08:33:28.402Z,11.70
2022-08-20T08:38:38.878Z,11.60
2022-08-20T08:43:47.651Z,10.40
2022-08-20T08:48:58.938Z,10.10
2022-08-20T08:54:07.331Z,9.70
2022-08-20T08:59:12.569Z,9.60
2022-08-20T09:04:21.748Z,10.50
2022-08-20T09:09:34.676Z,10.10
2022-08-20T09:14:39.894Z,10.70
2022-08-20T09:19:44.908Z,10.70
2022-08-20T09:24:50.414Z,10.50
2022-08-20T09:35:00.866Z,11.40
2022-08-20T09:40:09.376Z,12.80
2022-08-20T09:45:14.889Z,13.80
2022-08-20T09:55:26.422Z,11.70
2022-08-20T10:00:29.999Z,11.90
2022-08-20T10:05:34.313Z,11.50
2022-08-20T10:10:40.324Z,10.20
2022-08-20T10:15:44.762Z,11.50
2022-08-20T10:20:49.269Z,9.40
2022-08-20T10:25:54.274Z,10.20
2022-08-20T10:30:58.351Z,9.30
2022-08-20T10:36:14.581Z,9.50
2022-08-20T10:41:20.683Z,8.70
2022-08-20T10:46:27.128Z,8.80
2022-08-20T10:51:32.772Z,8.50
2022-08-20T10:56:36.197Z,7.30
2022-08-20T11:01:39.397Z,9.40
2022-08-20T11:06:42.842Z,8.50
2022-08-20T11:11:45.867Z,8.80
2022-08-20T11:16:51.321Z,7.40
2022-08-20T11:21:56.497Z,8.00
2022-08-20T11:26:59.649Z,7.10
2022-08-20T11:32:04.052Z,7.40
2022-08-20T11:37:10.784Z,7.90
2022-08-20T11:42:17.757Z,6.90
2022-08-20T11:47:26.179Z,7.90
2022-08-20T11:52:32.762Z,7.50
2022-08-20T11:57:37.477Z,9.00
2022-08-20T12:02:42.512Z,6.50
2022-08-20T12:07:46.711Z,7.70
2022-08-20T12:12:50.515Z,6.10
2022-08-20T12:17:57.926Z,4.30
2022-08-20T12:23:02.479Z,4.80
2022-08-20T12:28:06.071Z,5.30
2022-08-20T12:33:15.084Z,3.90
2022-08-20T12:38:18.822Z,4.70
2022-08-20T12:43:25.009Z,4.90
2022-08-20T12:48:28.725Z,5.50
2022-08-20T12:53:32.095Z,5.50
2022-08-20T12:58:38.070Z,4.80
2022-08-20T13:03:44.901Z,5.10
2022-08-20T13:08:48.518Z,5.60
2022-08-20T13:13:52.217Z,5.30
2022-08-20T13:18:55.710Z,5.50
2022-08-20T13:23:59.352Z,5.80
2022-08-20T13:29:02.868Z,6.50
2022-08-20T13:34:06.362Z,6.20
2022-08-20T13:39:09.507Z,5.70
2022-08-20T13:44:13.245Z,6.30
2022-08-20T13:49:16.350Z,6.50
2022-08-20T13:54:19.882Z,6.00
2022-08-20T13:59:26.328Z,6.00
2022-08-20T14:04:30.607Z,6.30
2022-08-20T14:09:36.590Z,6.20
2022-08-20T14:14:41.433Z,6.80
2022-08-20T14:19:46.573Z,7.80
2022-08-20T14:24:50.583Z,6.10
2022-08-20T14:29:54.353Z,5.60
2022-08-20T14:34:59.647Z,5.90
2022-08-20T14:40:05.695Z,6.30
2022-08-20T14:45:11.692Z,5.60
2022-08-20T14:50:31.592Z,6.30
2022-08-20T14:55:38.050Z,7.50
2022-08-20T15:00:42.715Z,5.00
2022-08-20T15:05:47.168Z,6.70
2022-08-20T15:10:53.984Z,6.20
2022-08-20T15:15:57.934Z,6.30
2022-08-20T15:21:01.486Z,6.30
2022-08-20T15:26:07.458Z,6.70
2022-08-20T15:31:12.420Z,6.90
2022-08-20T15:36:16.190Z,6.60
2022-08-20T15:41:20.174Z,6.10
2022-08-20T15:46:26.800Z,6.70
2022-08-20T15:51:43.813Z,6.90
2022-08-20T15:57:21.649Z,6.00
2022-08-20T16:02:43.755Z,6.90
2022-08-20T16:07:54.118Z,6.30
2022-08-20T16:13:01.683Z,6.80
2022-08-20T16:18:28.901Z,6.70
2022-08-20T16:23:37.823Z,7.50
2022-08-20T16:28:59.020Z,6.40
2022-08-20T16:34:35.345Z,7.80
2022-08-20T16:40:23.895Z,7.90
2022-08-20T16:45:32.932Z,8.00
2022-08-20T16:51:03.983Z,8.00
2022-08-20T16:56:07.378Z,6.60
2022-08-20T17:01:14.259Z,6.00
2022-08-20T17:06:25.953Z,6.30
2022-08-20T17:11:33.121Z,6.70
2022-08-20T17:16:51.547Z,7.10
2022-08-20T17:21:56.138Z,7.00
2022-08-20T17:27:10.782Z,8.80
2022-08-20T17:32:23.800Z,8.90
2022-08-20T17:37:33.503Z,8.30
2022-08-20T17:42:58.895Z,7.20
2022-08-20T17:48:07.174Z,7.00
2022-08-20T17:53:23.210Z,6.10
2022-08-20T17:58:54.116Z,6.40
2022-08-20T18:04:01.085Z,6.90
2022-08-20T18:09:29.980Z,7.80
2022-08-20T18:14:58.898Z,7.20
2022-08-20T18:20:24.913Z,7.60
2022-08-20T18:25:40.249Z,7.60
2022-08-20T18:31:01.580Z,7.30
2022-08-20T18:36:25.043Z,9.50
2022-08-20T18:41:33.069Z,8.20
2022-08-20T18:46:39.278Z,7.70
2022-08-20T18:51:50.311Z,6.60
2022-08-20T18:57:17.098Z,7.30
2022-08-20T19:02:29.330Z,10.20
2022-08-20T19:07:48.399Z,9.60
2022-08-20T19:13:26.213Z,8.10
2022-08-20T19:18:38.499Z,9.20
2022-08-20T19:23:49.335Z,11.50
2022-08-20T19:29:08.495Z,11.90
2022-08-20T19:34:22.479Z,13.20
2022-08-20T19:39:28.528Z,14.10
2022-08-20T19:44:43.103Z,12.20
2022-08-20T19:55:06.383Z,10.50
2022-08-20T20:00:13.765Z,11.20
2022-08-20T20:05:17.344Z,11.30
2022-08-20T20:10:33.792Z,10.70
2022-08-20T20:15:38.745Z,11.40
2022-08-20T20:20:57.347Z,12.40
2022-08-20T20:26:05.934Z,12.50
2022-08-20T20:31:12.868Z,13.70
2022-08-20T20:36:18.668Z,14.90
2022-08-20T20:41:24.992Z,15.20
2022-08-20T20:46:31.187Z,13.30
2022-08-20T20:51:43.043Z,11.20
2022-08-20T20:57:06.606Z,11.10
2022-08-20T21:02:11.922Z,10.20
2022-08-20T21:07:26.013Z,9.50
2022-08-20T21:12:32.581Z,8.00
2022-08-20T21:17:37.399Z,9.50
2022-08-20T21:22:40.971Z,8.10
2022-08-20T21:27:46.773Z,7.90
2022-08-20T21:33:03.728Z,7.40
2022-08-20T21:38:27.357Z,7.90
2022-08-20T21:43:34.266Z,7.70
2022-08-20T21:48:39.724Z,7.70
2022-08-20T21:53:43.247Z,7.80
2022-08-20T21:58:55.335Z,7.70
2022-08-20T22:04:08.054Z,8.10
2022-08-20T22:09:16.269Z,8.70
2022-08-20T22:14:23.630Z,8.50
2022-08-20T22:24:38.642Z,8.70
2022-08-20T22:29:44.885Z,9.10
2022-08-20T22:35:01.556Z,9.10
2022-08-20T22:40:28.269Z,8.70
2022-08-20T22:45:33.347Z,9.90
2022-08-20T22:50:38.772Z,9.20
2022-08-20T22:55:46.625Z,9.50
2022-08-20T23:00:52.692Z,7.90
2022-08-20T23:05:57.312Z,7.10
2022-08-20T23:11:00.588Z,7.20
2022-08-20T23:16:05.786Z,7.40
2022-08-20T23:21:09.030Z,7.60
2022-08-20T23:26:19.363Z,7.30
2022-08-20T23:31:22.943Z,6.20
2022-08-20T23:36:26.230Z,6.60
2022-08-20T23:41:29.953Z,5.80
2022-08-20T23:46:36.337Z,6.80
2022-08-20T23:56:44.171Z,6.50
